Time;durP1;ratioP1;P1;durP2;ratioP2;P2;SDS_P1;SDS_P2;PMS_P1;PMS_P2;Temp;Humidity;BMP_temperature;BMP_pressure;BME280_temperature;BME280_humidity;BME280_pressure;Samples;Min_cycle;Max_cycle;Signal;HPM_P1;HPM_P2
2021/04/21 00:00:23;;;;;;;5.32;2.97;;;;;;;7.53;83.98;100644.28;5153153;28;20118;-79
2021/04/21 00:02:55;;;;;;;10.52;3.35;;;;;;;7.34;85.67;100640.38;5156042;28;20033;-79
2021/04/21 00:05:26;;;;;;;8.00;3.50;;;;;;;7.32;84.99;100635.19;5158447;28;20035;-79
2021/04/21 00:07:58;;;;;;;7.32;3.20;;;;;;;7.28;85.70;100643.09;5154821;28;20473;-79
2021/04/21 00:10:29;;;;;;;6.90;3.05;;;;;;;7.37;84.74;100628.16;5162011;28;20038;-79
2021/04/21 00:13:00;;;;;;;7.22;3.05;;;;;;;7.33;84.58;100636.06;5160570;28;20033;-79
2021/04/21 00:15:31;;;;;;;7.00;3.60;;;;;;;7.02;86.59;100635.00;5158867;28;20034;-79
2021/04/21 00:18:05;;;;;;;7.50;3.40;;;;;;;6.99;84.75;100623.81;5150107;28;20050;-80
2021/04/21 00:20:36;;;;;;;9.88;3.30;;;;;;;7.02;85.28;100623.72;5153245;28;20058;-79
2021/04/21 00:23:10;;;;;;;11.65;3.08;;;;;;;7.00;85.82;100617.72;5155175;28;20045;-79
2021/04/21 00:25:41;;;;;;;5.78;2.90;;;;;;;7.09;86.67;100618.38;5154401;28;20034;-78
2021/04/21 00:28:13;;;;;;;7.25;2.67;;;;;;;6.96;86.23;100616.91;5149296;28;20569;-79
2021/04/21 00:30:43;;;;;;;6.20;3.05;;;;;;;6.93;86.74;100621.34;5153927;28;20042;-79
2021/04/21 00:33:17;;;;;;;6.40;2.97;;;;;;;7.26;85.98;100612.84;5156151;28;20034;-79
2021/04/21 00:35:50;;;;;;;6.82;2.88;;;;;;;6.92;86.93;100624.81;5153813;28;20023;-79
2021/04/21 00:38:22;;;;;;;5.72;2.90;;;;;;;6.90;88.03;100618.81;5154375;28;20035;-79
2021/04/21 00:40:56;;;;;;;7.68;3.20;;;;;;;6.96;86.56;100621.28;5152944;28;20106;-79
2021/04/21 00:43:39;;;;;;;6.93;3.03;;;;;;;6.84;87.08;100619.78;5153831;28;20030;-79
2021/04/21 00:46:15;;;;;;;9.15;3.10;;;;;;;6.87;87.05;100617.13;5144778;28;20030;-79
2021/04/21 00:48:53;;;;;;;;;;;;;;;7.00;87.30;100625.50;5154704;28;20448;-79
2021/04/21 00:51:30;;;;;;;5.28;2.80;;;;;;;7.13;85.48;100622.63;5143555;28;19918;-79
2021/04/21 00:54:17;;;;;;;6.80;2.60;;;;;;;6.73;86.87;100615.69;5161447;28;20048;-79
2021/04/21 00:56:58;;;;;;;7.28;2.80;;;;;;;6.26;91.15;100626.09;5155035;28;20464;-79
2021/04/21 00:59:43;;;;;;;5.75;2.50;;;;;;;6.39;89.04;100625.84;5150638;28;20035;-79
2021/04/21 01:02:17;;;;;;;6.25;2.47;;;;;;;6.28;88.27;100630.34;5161130;28;20109;-78
2021/04/21 01:04:48;;;;;;;4.13;2.40;;;;;;;6.08;91.34;100629.81;5151124;28;20030;-79
2021/04/21 01:07:20;;;;;;;6.55;2.60;;;;;;;5.98;91.29;100628.28;5152909;28;20022;-79
2021/04/21 01:09:54;;;;;;;7.75;2.88;;;;;;;5.86;92.59;100628.47;5153150;28;20029;-79
2021/04/21 01:12:27;;;;;;;7.32;2.85;;;;;;;5.94;91.60;100630.94;5149829;28;20026;-79
2021/04/21 01:15:00;;;;;;;6.25;3.03;;;;;;;6.03;91.79;100631.66;5152187;28;20037;-79
2021/04/21 01:17:33;;;;;;;8.05;3.25;;;;;;;6.06;90.47;100625.56;5158714;28;20062;-79
2021/04/21 01:20:17;;;;;;;8.40;3.33;;;;;;;6.11;89.92;100629.78;5149970;28;20033;-79
2021/04/21 01:23:03;;;;;;;8.60;3.13;;;;;;;6.06;90.38;100625.56;5164567;28;20018;-79
2021/04/21 01:25:52;;;;;;;8.32;3.33;;;;;;;6.05;90.40;100623.88;5151665;28;20562;-79
2021/04/21 01:28:24;;;;;;;7.93;3.38;;;;;;;6.21;90.13;100617.50;5152583;28;20108;-79
2021/04/21 01:30:55;;;;;;;8.35;3.10;;;;;;;6.17;89.88;100621.03;5157066;28;20710;-79
2021/04/21 01:33:27;;;;;;;7.43;3.22;;;;;;;5.71;92.98;100625.25;5155837;28;20030;-79
2021/04/21 01:36:04;;;;;;;7.22;3.30;;;;;;;5.69;93.88;100621.78;5159115;28;20030;-79
2021/04/21 01:38:38;;;;;;;6.38;3.05;;;;;;;5.79;91.76;100623.41;5157917;28;20055;-79
2021/04/21 01:41:13;;;;;;;5.28;3.03;;;;;;;5.39;94.24;100619.66;5157594;28;20029;-79
2021/04/21 01:44:08;;;;;;;5.17;2.77;;;;;;;5.53;92.90;100628.06;5152996;28;20077;-79
2021/04/21 01:46:42;;;;;;;7.50;2.78;;;;;;;5.72;91.93;100624.38;5156519;28;20367;-79
2021/04/21 01:49:21;;;;;;;6.60;2.90;;;;;;;5.85;88.85;100621.56;5154347;28;20488;-79
2021/04/21 01:52:05;;;;;;;5.45;2.92;;;;;;;5.99;88.53;100626.53;5153726;28;20027;-79
2021/04/21 01:54:40;;;;;;;7.47;2.83;;;;;;;6.11;87.50;100624.59;5156373;28;20080;-79
2021/04/21 01:57:24;;;;;;;5.70;3.05;;;;;;;5.65;90.23;100635.69;5153759;28;20023;-79
2021/04/21 02:00:03;;;;;;;7.53;2.95;;;;;;;5.81;89.99;100629.41;5150756;28;20038;-79
2021/04/21 02:02:39;;;;;;;7.85;2.92;;;;;;;5.79;90.79;100629.47;5156959;28;20030;-79
2021/04/21 02:05:18;;;;;;;;;;;;;;;5.69;91.12;100624.38;5162866;28;20077;-79
2021/04/21 02:08:10;;;;;;;6.78;2.85;;;;;;;5.40;91.09;100623.97;5157189;28;19913;-79
2021/04/21 02:11:24;;;;;;;10.52;3.00;;;;;;;5.41;91.62;100633.47;5156789;28;20386;-79
2021/04/21 02:14:15;;;;;;;5.80;3.05;;;;;;;5.25;92.22;100626.78;5110666;29;20035;-79
2021/04/21 02:16:48;;;;;;;6.93;3.05;;;;;;;5.01;92.36;100636.59;5157296;28;20105;-79
2021/04/21 02:19:43;;;;;;;5.57;3.10;;;;;;;5.08;93.82;100628.72;5151910;28;20400;-79
2021/04/21 02:22:35;;;;;;;5.45;2.90;;;;;;;5.17;93.68;100632.94;5152553;28;20033;-79
2021/04/21 02:25:41;;;;;;;6.13;3.22;;;;;;;5.13;93.07;100634.69;5155003;28;20027;-79
2021/04/21 02:28:39;;;;;;;9.63;3.15;;;;;;;5.20;93.73;100630.28;5157088;28;20030;-79
2021/04/21 02:31:31;;;;;;;10.13;3.53;;;;;;;5.15;93.81;100622.56;5158630;28;20031;-79
2021/04/21 02:34:22;;;;;;;9.75;3.30;;;;;;;5.27;92.92;100625.00;5151743;28;20071;-79
2021/04/21 02:37:05;;;;;;;9.50;3.30;;;;;;;5.31;91.12;100625.84;5155884;28;20030;-79
2021/04/21 02:39:50;;;;;;;8.52;3.00;;;;;;;5.20;91.83;100630.28;5152562;28;20090;-79
2021/04/21 02:42:30;;;;;;;6.70;2.95;;;;;;;5.11;91.50;100622.66;5153145;28;20440;-79
2021/04/21 02:45:10;;;;;;;10.32;2.90;;;;;;;4.92;93.32;100627.19;5160265;28;20570;-79
2021/04/21 02:47:53;;;;;;;7.40;3.05;;;;;;;4.89;93.27;100629.81;5159217;28;20031;-79
2021/04/21 02:50:57;;;;;;;7.40;3.25;;;;;;;4.91;93.81;100634.97;5157372;28;20049;-79
2021/04/21 02:53:42;;;;;;;8.13;2.97;;;;;;;5.22;89.67;100634.59;5156680;28;20031;-79
2021/04/21 02:56:46;;;;;;;5.60;2.80;;;;;;;5.03;90.79;100629.66;5158131;28;20535;-79
2021/04/21 02:59:31;;;;;;;5.43;2.80;;;;;;;5.26;90.77;100627.59;5155324;28;20073;-79
2021/04/21 03:02:09;;;;;;;5.43;2.60;;;;;;;5.22;89.35;100632.00;5154240;28;20134;-79
2021/04/21 03:04:51;;;;;;;4.72;2.72;;;;;;;5.00;90.27;100630.53;5154515;28;20049;-79
2021/04/21 03:07:39;;;;;;;4.55;2.72;;;;;;;4.92;89.29;100629.78;5149955;28;20416;-79
2021/04/21 03:10:13;;;;;;;5.38;2.28;;;;;;;4.74;90.67;100627.41;5151858;28;20030;-79
2021/04/21 03:12:51;;;;;;;8.07;2.50;;;;;;;4.76;90.35;100625.66;5154506;28;20038;-79
2021/04/21 03:15:26;;;;;;;3.70;2.33;;;;;;;4.84;91.35;100628.16;5155376;28;20030;-79
2021/04/21 03:17:59;;;;;;;7.63;2.58;;;;;;;4.95;89.94;100618.53;5157226;28;20454;-79
2021/04/21 03:20:30;;;;;;;5.53;2.70;;;;;;;4.71;90.70;100626.59;5151558;28;20504;-80
2021/04/21 03:23:04;;;;;;;8.10;2.58;;;;;;;4.61;92.01;100625.81;5154229;28;20249;-79
2021/04/21 03:25:37;;;;;;;5.72;2.75;;;;;;;4.45;93.29;100626.84;5152994;28;20050;-79
2021/04/21 03:28:12;;;;;;;7.50;2.90;;;;;;;4.49;92.31;100625.09;5154120;28;20376;-79
2021/04/21 03:30:44;;;;;;;7.03;3.13;;;;;;;4.26;94.70;100620.16;5155650;28;20046;-79
2021/04/21 03:33:29;;;;;;;5.55;2.80;;;;;;;4.48;94.39;100629.41;5160375;28;20040;-79
2021/04/21 03:36:00;;;;;;;9.45;3.00;;;;;;;4.52;92.02;100625.06;5157051;28;20072;-80
2021/04/21 03:38:31;;;;;;;5.20;2.63;;;;;;;4.31;93.23;100628.72;5152432;28;20038;-79
2021/04/21 03:41:01;;;;;;;6.22;3.00;;;;;;;4.30;94.09;100633.94;5149511;28;20031;-79
2021/04/21 03:43:32;;;;;;;5.20;2.40;;;;;;;4.43;93.94;100626.03;5153236;28;20034;-79
2021/04/21 03:46:03;;;;;;;7.50;3.20;;;;;;;4.32;93.83;100622.69;5154839;28;20484;-79
2021/04/21 03:48:36;;;;;;;7.05;2.80;;;;;;;4.18;95.50;100623.69;5157296;28;20026;-79
2021/04/21 03:51:07;;;;;;;7.78;2.80;;;;;;;4.07;95.46;100626.38;5147724;28;20027;-79
2021/04/21 03:53:38;;;;;;;6.05;3.17;;;;;;;3.98;95.66;100623.84;5153273;28;20110;-79
2021/04/21 03:56:16;;;;;;;7.97;2.80;;;;;;;4.01;95.89;100616.09;5148291;28;20077;-79
2021/04/21 03:58:47;;;;;;;6.20;2.88;;;;;;;3.80;95.52;100624.00;5152582;28;20030;-79
2021/04/21 04:01:20;;;;;;;6.60;3.10;;;;;;;3.93;95.97;100623.03;5149887;28;20038;-78
2021/04/21 04:03:57;;;;;;;8.75;3.28;;;;;;;4.06;93.91;100624.66;5151648;28;20388;-79
2021/04/21 04:06:37;;;;;;;7.30;2.97;;;;;;;4.15;93.42;100626.31;5156644;28;20032;-79
2021/04/21 04:09:12;;;;;;;5.70;2.92;;;;;;;4.36;91.58;100618.34;5150883;28;20035;-79
2021/04/21 04:11:46;;;;;;;7.35;3.20;;;;;;;3.88;94.01;100623.94;5156598;28;20037;-79
2021/04/21 04:14:21;;;;;;;7.88;3.05;;;;;;;4.05;94.46;100625.53;5153917;28;20039;-78
2021/04/21 04:16:58;;;;;;;5.60;2.37;;;;;;;4.01;94.19;100626.44;5151197;28;20038;-79
2021/04/21 04:19:35;;;;;;;6.60;3.50;;;;;;;3.84;95.74;100633.47;5148812;28;20289;-79
2021/04/21 04:22:06;;;;;;;8.15;3.28;;;;;;;3.77;96.84;100639.53;5150901;28;20029;-78
2021/04/21 04:24:42;;;;;;;5.47;3.30;;;;;;;3.78;96.99;100627.50;5153366;28;20088;-79
2021/04/21 04:27:21;;;;;;;6.72;3.60;;;;;;;3.96;96.95;100630.75;5150960;28;20034;-79
2021/04/21 04:29:53;;;;;;;6.60;3.30;;;;;;;4.02;94.08;100630.75;5149830;28;20097;-79
2021/04/21 04:32:26;;;;;;;5.47;3.30;;;;;;;4.25;93.97;100639.13;5152783;28;20037;-79
2021/04/21 04:34:58;;;;;;;6.15;3.45;;;;;;;4.02;93.68;100635.91;5152393;28;20034;-79
2021/04/21 04:37:30;;;;;;;11.18;3.78;;;;;;;3.88;94.61;100634.28;5150718;28;20114;-79
2021/04/21 04:40:02;;;;;;;6.68;3.53;;;;;;;3.86;95.98;100636.03;5151631;28;20096;-79
2021/04/21 04:42:35;;;;;;;9.05;3.53;;;;;;;3.77;96.64;100642.13;5152430;28;20058;-79
2021/04/21 04:45:07;;;;;;;6.75;3.53;;;;;;;3.86;96.93;100631.72;5155814;28;20092;-79
2021/04/21 04:47:52;;;;;;;10.75;3.88;;;;;;;3.57;96.51;100647.44;5156960;28;20048;-79
2021/04/21 04:50:23;;;;;;;10.30;4.30;;;;;;;3.88;96.62;100640.31;5151780;28;20117;-79
2021/04/21 04:52:56;;;;;;;8.23;3.97;;;;;;;4.08;96.67;100640.13;5151794;28;20357;-80
2021/04/21 04:55:28;;;;;;;7.43;3.30;;;;;;;4.30;96.40;100634.78;5157144;28;20026;-80
2021/04/21 04:58:02;;;;;;;6.38;3.30;;;;;;;4.23;95.85;100647.78;5155259;28;20081;-80
2021/04/21 05:00:33;;;;;;;6.13;3.22;;;;;;;4.25;95.68;100641.72;5158798;28;20045;-80
2021/04/21 05:03:23;;;;;;;7.97;3.13;;;;;;;4.72;95.75;100649.88;5158940;28;20026;-80
2021/04/21 05:05:55;;;;;;;7.80;3.50;;;;;;;5.46;91.95;100642.00;5154766;28;20061;-80
2021/04/21 05:08:33;;;;;;;9.30;3.50;;;;;;;5.42;91.13;100643.78;5156173;28;20569;-80
2021/04/21 05:11:08;;;;;;;8.05;3.10;;;;;;;5.90;88.75;100650.03;5157763;28;20039;-81
2021/04/21 05:13:44;;;;;;;6.78;3.20;;;;;;;6.86;85.80;100645.72;5162544;28;20090;-82
2021/04/21 05:16:14;;;;;;;8.88;2.92;;;;;;;7.40;81.43;100648.91;5167428;28;20022;-83
2021/04/21 05:19:02;;;;;;;5.20;2.85;;;;;;;7.82;80.81;100636.66;5168070;28;20053;-83
2021/04/21 05:22:10;;;;;;;5.28;2.63;;;;;;;8.10;80.78;100643.78;5169001;28;20034;-83
2021/04/21 05:24:58;;;;;;;4.47;2.50;;;;;;;9.45;73.79;100650.50;5165028;28;20019;-83
2021/04/21 05:27:57;;;;;;;3.50;1.95;;;;;;;10.82;69.95;100639.00;5163444;28;20034;-84
2021/04/21 05:30:51;;;;;;;5.70;2.50;;;;;;;11.03;69.51;100637.31;5164066;28;20097;-84
2021/04/21 05:33:40;;;;;;;6.35;2.30;;;;;;;12.47;64.00;100634.19;5165488;28;20030;-84
2021/04/21 05:36:49;;;;;;;4.32;2.10;;;;;;;14.28;61.09;100632.78;5164019;28;20030;-83
2021/04/21 05:39:42;;;;;;;5.53;2.38;;;;;;;13.49;64.26;100635.72;5164564;28;20089;-84
2021/04/21 05:42:50;;;;;;;6.65;2.33;;;;;;;14.39;60.73;100633.09;5160278;28;20059;-84
2021/04/21 05:45:39;;;;;;;4.80;2.45;;;;;;;16.78;54.74;100625.78;5166679;28;20039;-84
2021/04/21 05:48:49;;;;;;;5.90;2.40;;;;;;;15.93;59.01;100628.19;5164982;28;20022;-84
2021/04/21 05:51:38;;;;;;;6.80;2.53;;;;;;;13.54;61.55;100633.72;5123914;29;20027;-83
2021/04/21 05:54:29;;;;;;;6.32;3.17;;;;;;;11.11;71.57;100642.28;5168707;28;20102;-84
2021/04/21 05:57:18;;;;;;;6.32;3.35;;;;;;;10.05;76.06;100652.09;5163025;28;20023;-83
2021/04/21 06:00:11;;;;;;;6.40;3.50;;;;;;;9.34;80.76;100657.78;5162449;28;20026;-82
2021/04/21 06:02:45;;;;;;;10.40;4.30;;;;;;;8.94;84.29;100640.72;5169275;28;20049;-83
2021/04/21 06:05:16;;;;;;;8.82;3.85;;;;;;;8.78;85.96;100650.72;5165743;28;20035;-83
2021/04/21 06:07:46;;;;;;;7.47;4.22;;;;;;;9.22;81.87;100652.91;5168591;28;20062;-83
2021/04/21 06:10:25;;;;;;;7.45;4.57;;;;;;;9.03;86.33;100643.91;5160695;28;20030;-83
2021/04/21 06:13:00;;;;;;;10.40;5.40;;;;;;;8.84;88.83;100652.28;5160942;28;20551;-83
2021/04/21 06:15:35;;;;;;;11.10;5.57;;;;;;;8.97;87.31;100656.25;5160238;28;20034;-83
2021/04/21 06:18:07;;;;;;;10.05;5.45;;;;;;;9.34;84.44;100647.34;5160936;28;20037;-83
2021/04/21 06:20:41;;;;;;;11.88;6.18;;;;;;;9.24;83.97;100648.50;5160219;28;20022;-83
2021/04/21 06:23:13;;;;;;;17.23;6.53;;;;;;;9.67;80.81;100651.56;5163833;28;20023;-84
2021/04/21 06:25:46;;;;;;;13.13;5.80;;;;;;;9.94;78.89;100646.34;5156934;28;20383;-83
2021/04/21 06:28:22;;;;;;;12.45;6.22;;;;;;;10.38;75.49;100642.28;5158825;28;20030;-83
2021/04/21 06:31:06;;;;;;;;;;;;;;;12.91;68.18;100633.97;5161875;28;20040;-84
2021/04/21 06:33:45;;;;;;;10.40;5.20;;;;;;;14.68;62.66;100635.09;5160943;28;19925;-84
2021/04/21 06:36:15;;;;;;;13.13;5.20;;;;;;;16.90;55.65;100625.03;5159702;28;20026;-84
2021/04/21 06:38:53;;;;;;;11.02;5.22;;;;;;;18.42;53.03;100625.81;5157910;28;20439;-84
2021/04/21 06:41:24;;;;;;;12.15;4.93;;;;;;;21.73;48.02;100609.81;5152841;28;20031;-82
2021/04/21 06:43:56;;;;;;;9.50;4.20;;;;;;;21.07;48.35;100617.78;5149105;28;20130;-83
2021/04/21 06:46:27;;;;;;;13.20;4.88;;;;;;;19.76;48.63;100604.81;5163800;28;20061;-84
2021/04/21 06:49:00;;;;;;;11.73;4.55;;;;;;;22.90;45.04;100603.38;5157301;28;20022;-83
2021/04/21 06:51:32;;;;;;;10.55;4.65;;;;;;;22.85;44.95;100610.94;5165096;28;20485;-84
2021/04/21 06:54:06;;;;;;;10.15;4.47;;;;;;;24.16;41.74;100603.59;5157117;28;20038;-85
2021/04/21 06:56:36;;;;;;;9.30;4.63;;;;;;;21.46;46.14;100611.97;5157499;28;20030;-84
2021/04/21 06:59:17;;;;;;;10.80;4.43;;;;;;;23.40;42.79;100608.69;5152647;28;20520;-83
2021/04/21 07:01:49;;;;;;;6.43;4.03;;;;;;;22.55;44.78;100610.00;5160478;28;20038;-84
2021/04/21 07:04:19;;;;;;;9.65;3.92;;;;;;;25.41;40.96;100605.94;5155195;28;20030;-82
2021/04/21 07:06:50;;;;;;;8.20;4.25;;;;;;;25.64;40.50;100599.22;5158366;28;20045;-82
2021/04/21 07:09:21;;;;;;;9.18;4.35;;;;;;;23.19;42.77;100602.59;5157764;28;20035;-83
2021/04/21 07:12:00;;;;;;;10.10;4.47;;;;;;;23.52;41.16;100604.13;5159122;28;20065;-83
2021/04/21 07:14:31;;;;;;;10.18;4.38;;;;;;;24.75;41.26;100604.28;5163307;28;20400;-83
2021/04/21 07:17:02;;;;;;;9.27;3.90;;;;;;;23.32;40.62;100602.34;5158360;28;20042;-84
2021/04/21 07:19:32;;;;;;;9.25;4.07;;;;;;;24.30;40.74;100608.53;5168142;28;20037;-83
2021/04/21 07:22:02;;;;;;;8.82;3.90;;;;;;;23.31;41.52;100614.00;5160985;28;20027;-83
2021/04/21 07:24:34;;;;;;;11.32;4.15;;;;;;;20.63;45.33;100616.81;5164731;28;20030;-84
2021/04/21 07:27:12;;;;;;;8.88;3.80;;;;;;;23.29;40.57;100605.28;5166689;28;20030;-84
2021/04/21 07:29:44;;;;;;;8.02;3.67;;;;;;;23.20;42.90;100601.59;5166847;28;20095;-83
2021/04/21 07:32:19;;;;;;;11.35;3.97;;;;;;;22.43;43.61;100611.88;5170469;28;20042;-84
2021/04/21 07:35:01;;;;;;;9.27;3.50;;;;;;;26.26;38.31;100604.59;5168117;28;20038;-84
2021/04/21 07:37:37;;;;;;;10.23;4.10;;;;;;;26.84;37.37;100598.59;5164451;28;20055;-83
2021/04/21 07:40:37;;;;;;;7.50;3.50;;;;;;;25.61;38.68;100599.50;5160453;28;20121;-84
2021/04/21 07:43:19;;;;;;;9.02;4.20;;;;;;;20.99;44.54;100614.84;5164894;28;20030;-84
2021/04/21 07:45:55;;;;;;;9.98;4.13;;;;;;;24.73;39.47;100606.25;5153323;28;20025;-82
2021/04/21 07:48:34;;;;;;;10.02;4.75;;;;;;;24.04;40.03;100596.69;5159531;28;20034;-83
2021/04/21 07:51:17;;;;;;;8.60;4.15;;;;;;;24.51;40.72;100601.19;5158763;28;20057;-83
2021/04/21 07:54:12;;;;;;;10.02;4.45;;;;;;;24.49;39.03;100592.47;5162273;28;20393;-83
2021/04/21 07:57:15;;;;;;;9.98;4.32;;;;;;;26.72;35.80;100599.00;5162449;28;20030;-83
2021/04/21 07:59:46;;;;;;;11.15;4.03;;;;;;;24.90;39.54;100600.16;5161401;28;20050;-83
2021/04/21 08:02:20;;;;;;;8.65;4.38;;;;;;;26.98;36.98;100596.19;5165404;28;20531;-84
2021/04/21 08:04:58;;;;;;;8.25;4.28;;;;;;;26.21;37.15;100606.91;5168803;28;20026;-84
2021/04/21 08:07:40;;;;;;;7.60;4.15;;;;;;;26.22;37.57;100603.22;5171949;28;20033;-83
2021/04/21 08:10:24;;;;;;;8.77;4.90;;;;;;;25.35;38.70;100598.50;5165785;28;20034;-83
2021/04/21 08:12:59;;;;;;;8.43;4.72;;;;;;;26.28;37.57;100594.56;5167350;28;20093;-83
2021/04/21 08:15:34;;;;;;;;;;;;;;;24.38;38.41;100599.81;5160047;28;20082;-82
2021/04/21 08:18:12;;;;;;;10.52;5.75;;;;;;;24.71;39.02;100596.72;5161622;28;19929;-83
2021/04/21 08:20:46;;;;;;;9.35;5.68;;;;;;;25.34;38.58;100599.50;5169199;28;20439;-83
2021/04/21 08:23:20;;;;;;;12.13;6.35;;;;;;;24.82;39.15;100595.53;5170997;28;20022;-83
2021/04/21 08:25:51;;;;;;;10.27;6.40;;;;;;;25.15;37.74;100602.22;5171372;28;20046;-83
2021/04/21 08:28:22;;;;;;;10.63;5.30;;;;;;;24.91;38.67;100600.03;5172365;28;20038;-83
2021/04/21 08:31:00;;;;;;;12.15;5.60;;;;;;;24.62;39.82;100595.75;5177973;28;20034;-83
2021/04/21 08:33:33;;;;;;;9.85;6.00;;;;;;;22.65;40.95;100611.78;5171366;28;20045;-82
2021/04/21 08:36:03;;;;;;;9.30;5.97;;;;;;;25.92;38.13;100608.94;5176827;28;20030;-82
2021/04/21 08:38:34;;;;;;;10.68;6.40;;;;;;;24.95;39.28;100600.59;5172993;28;20034;-82
2021/04/21 08:41:06;;;;;;;12.37;6.30;;;;;;;25.79;37.87;100603.06;5170278;28;20035;-82
2021/04/21 08:43:36;;;;;;;12.65;6.63;;;;;;;24.62;39.34;100598.41;5167076;28;20306;-82
2021/04/21 08:46:07;;;;;;;10.98;5.90;;;;;;;24.16;40.07;100606.25;5166635;28;20038;-82
2021/04/21 08:48:39;;;;;;;10.70;6.20;;;;;;;24.41;40.36;100597.66;5173479;28;20045;-82
2021/04/21 08:51:17;;;;;;;13.13;6.50;;;;;;;24.84;39.37;100608.78;5167939;28;20054;-83
2021/04/21 08:53:51;;;;;;;12.85;6.65;;;;;;;25.78;38.03;100596.00;5164286;28;20095;-82
2021/04/21 08:56:23;;;;;;;10.70;6.32;;;;;;;25.71;38.37;100589.59;5172625;28;20034;-82
2021/04/21 08:58:53;;;;;;;10.05;6.47;;;;;;;23.96;39.99;100607.22;5170821;28;20026;-82
2021/04/21 09:01:24;;;;;;;11.67;6.30;;;;;;;25.79;38.54;100603.06;5175728;28;20318;-82
2021/04/21 09:03:54;;;;;;;10.35;6.82;;;;;;;25.08;39.27;100599.28;5168496;28;20320;-82
2021/04/21 09:06:25;;;;;;;11.77;6.78;;;;;;;22.97;40.67;100599.19;5174375;28;20647;-82
2021/04/21 09:08:56;;;;;;;10.63;6.88;;;;;;;23.77;40.32;100595.63;5170422;28;20030;-82
2021/04/21 09:11:26;;;;;;;12.38;6.90;;;;;;;26.07;38.47;100596.72;5167233;28;20031;-82
2021/04/21 09:13:57;;;;;;;10.68;6.88;;;;;;;24.80;39.67;100594.03;5171557;28;20029;-83
2021/04/21 09:16:27;;;;;;;13.93;6.80;;;;;;;24.49;39.68;100595.16;5162756;28;20122;-82
2021/04/21 09:18:58;;;;;;;10.43;6.63;;;;;;;24.03;39.68;100591.50;5173321;28;20294;-82
2021/04/21 09:21:31;;;;;;;12.57;6.32;;;;;;;24.09;39.18;100597.13;5173701;28;20283;-82
2021/04/21 09:24:02;;;;;;;10.55;6.60;;;;;;;22.69;40.09;100602.56;5166401;28;20043;-81
2021/04/21 09:26:34;;;;;;;10.10;6.47;;;;;;;21.30;41.86;100611.50;5173327;28;20430;-82
2021/04/21 09:29:05;;;;;;;11.85;6.88;;;;;;;20.38;42.64;100609.84;5169705;28;20287;-81
2021/04/21 09:31:35;;;;;;;10.70;6.47;;;;;;;19.86;43.75;100612.00;5168745;28;20030;-82
2021/04/21 09:34:14;;;;;;;12.27;5.85;;;;;;;19.65;43.84;100616.19;5175432;28;20018;-82
2021/04/21 09:36:49;;;;;;;12.63;6.60;;;;;;;19.07;44.32;100615.94;5170127;28;20057;-81
2021/04/21 09:39:23;;;;;;;15.40;7.00;;;;;;;18.71;46.47;100616.78;5162185;28;20114;-81
2021/04/21 09:42:00;;;;;;;13.25;7.13;;;;;;;19.23;47.05;100615.72;5170146;28;20058;-80
2021/04/21 09:44:45;;;;;;;10.63;6.60;;;;;;;19.15;46.06;100613.63;5172680;28;20080;-81
2021/04/21 09:47:18;;;;;;;13.05;7.45;;;;;;;19.42;46.90;100606.38;5170417;28;20026;-81
2021/04/21 09:49:58;;;;;;;13.50;7.10;;;;;;;19.34;47.91;100602.56;5172241;28;20062;-81
2021/04/21 09:52:30;;;;;;;13.02;6.75;;;;;;;19.15;45.95;100607.44;5170792;28;20053;-81
2021/04/21 09:55:00;;;;;;;12.05;6.15;;;;;;;19.70;45.80;100605.25;5174733;28;20034;-84
2021/04/21 09:57:34;;;;;;;14.13;7.00;;;;;;;19.36;44.78;100605.97;5170179;28;20034;-82
2021/04/21 10:00:07;;;;;;;10.95;6.30;;;;;;;18.71;45.45;100611.47;5174127;28;20046;-81
2021/04/21 10:02:46;;;;;;;7.65;5.35;;;;;;;18.40;44.45;100606.56;5166975;28;20022;-81
2021/04/21 10:05:26;;;;;;;10.48;4.97;;;;;;;18.84;43.91;100597.28;5171208;28;20113;-81
2021/04/21 10:08:21;;;;;;;7.75;4.20;;;;;;;18.92;43.47;100590.50;5172049;28;20049;-81
2021/04/21 10:11:01;;;;;;;8.82;4.35;;;;;;;18.30;42.15;100603.69;5172267;28;20105;-81
2021/04/21 10:13:43;;;;;;;9.45;3.58;;;;;;;18.70;42.66;100599.19;5173028;28;20030;-81
2021/04/21 10:16:15;;;;;;;11.85;3.78;;;;;;;18.47;42.33;100607.81;5175819;28;20022;-82
2021/04/21 10:18:46;;;;;;;7.68;3.05;;;;;;;18.71;41.78;100591.13;5180789;28;20038;-80
2021/04/21 10:21:18;;;;;;;8.00;3.22;;;;;;;18.30;42.34;100602.81;5179413;23;20046;-79
2021/04/21 10:23:49;;;;;;;5.78;2.55;;;;;;;18.50;41.17;100597.88;5166404;28;20026;-79
2021/04/21 10:26:20;;;;;;;6.05;2.63;;;;;;;17.81;40.35;100604.31;5172360;28;20113;-78
2021/04/21 10:28:51;;;;;;;6.68;2.67;;;;;;;18.21;42.12;100598.13;5168018;28;20109;-79
2021/04/21 10:31:22;;;;;;;6.72;2.92;;;;;;;17.98;41.55;100598.78;5169393;28;20065;-79
2021/04/21 10:33:53;;;;;;;9.10;3.17;;;;;;;18.11;42.28;100591.72;5168332;28;20535;-79
2021/04/21 10:36:23;;;;;;;10.15;3.30;;;;;;;18.02;42.05;100600.28;5174864;28;20109;-80
2021/04/21 10:38:54;;;;;;;8.85;3.20;;;;;;;17.86;42.39;100604.88;5179528;28;20037;-79
2021/04/21 10:41:35;;;;;;;7.85;2.90;;;;;;;17.66;42.48;100602.66;5177416;28;20573;-79
2021/04/21 10:44:10;;;;;;;6.75;3.15;;;;;;;18.02;43.24;100600.28;5174600;28;20034;-79
2021/04/21 10:46:57;;;;;;;7.05;2.95;;;;;;;18.25;44.56;100596.94;5174748;28;20038;-79
2021/04/21 10:49:58;;;;;;;9.57;2.85;;;;;;;18.51;43.00;100590.81;5165510;28;20033;-79
2021/04/21 10:52:28;;;;;;;8.85;3.00;;;;;;;18.28;42.81;100594.13;5169612;28;20496;-79
2021/04/21 10:55:00;;;;;;;8.27;3.17;;;;;;;18.32;42.27;100603.59;5173756;28;20100;-79
2021/04/21 10:57:42;;;;;;;11.25;2.80;;;;;;;18.28;41.81;100594.13;5173929;28;20034;-79
2021/04/21 11:00:17;;;;;;;8.50;2.70;;;;;;;18.38;41.62;100590.75;5169306;28;20030;-79
2021/04/21 11:02:55;;;;;;;8.05;2.28;;;;;;;18.24;41.72;100595.25;5168999;28;20053;-78
2021/04/21 11:05:41;;;;;;;5.07;2.33;;;;;;;18.13;42.47;100589.81;5173002;28;20034;-79
2021/04/21 11:08:15;;;;;;;6.93;2.60;;;;;;;18.03;42.65;100592.22;5174888;28;20026;-79
2021/04/21 11:10:59;;;;;;;6.38;2.30;;;;;;;18.18;42.14;100590.38;5171675;28;20400;-79
2021/04/21 11:13:32;;;;;;;8.70;2.72;;;;;;;18.22;42.07;100586.59;5169508;28;20030;-79
2021/04/21 11:16:31;;;;;;;5.32;2.40;;;;;;;18.01;42.94;100582.72;5172379;28;20052;-79
2021/04/21 11:19:14;;;;;;;5.35;2.60;;;;;;;17.78;42.29;100591.28;5177264;28;20022;-79
2021/04/21 11:21:49;;;;;;;5.05;2.50;;;;;;;17.74;42.10;100589.78;5177003;28;20018;-79
2021/04/21 11:24:21;;;;;;;6.95;2.13;;;;;;;17.44;41.67;100582.03;5172655;28;20069;-79
2021/04/21 11:26:51;;;;;;;9.48;2.70;;;;;;;17.68;42.99;100584.91;5175280;28;20544;-79
2021/04/21 11:29:22;;;;;;;8.45;2.60;;;;;;;17.79;43.86;100572.69;5175420;28;20030;-80
2021/04/21 11:31:52;;;;;;;4.47;2.30;;;;;;;17.92;42.99;100580.66;5178183;28;20046;-79
2021/04/21 11:34:28;;;;;;;8.65;2.45;;;;;;;17.98;43.12;100572.34;5179553;28;20022;-79
2021/04/21 11:37:18;;;;;;;7.78;2.78;;;;;;;18.24;43.19;100579.38;5178169;28;20026;-79
2021/04/21 11:39:58;;;;;;;6.85;2.33;;;;;;;18.62;45.46;100567.09;5174558;28;20388;-79
2021/04/21 11:42:28;;;;;;;10.00;2.58;;;;;;;18.80;42.54;100564.03;5175365;28;20022;-79
2021/04/21 11:45:19;;;;;;;8.52;2.70;;;;;;;18.69;43.13;100560.44;5173269;28;20076;-80
2021/04/21 11:47:55;;;;;;;10.57;5.32;;;;;;;18.38;42.66;100563.47;5177502;28;20077;-79
2021/04/21 11:50:27;;;;;;;7.18;3.20;;;;;;;18.25;43.70;100560.78;5179025;28;20058;-80
2021/04/21 11:53:01;;;;;;;8.55;3.15;;;;;;;18.12;43.41;100566.97;5177293;28;20080;-80
2021/04/21 11:55:44;;;;;;;8.77;3.80;;;;;;;18.15;44.76;100572.91;5179977;28;20689;-79
2021/04/21 11:58:30;;;;;;;10.18;4.68;;;;;;;18.29;43.69;100558.78;5176635;28;20038;-79
2021/04/21 12:01:04;;;;;;;9.60;3.75;;;;;;;18.17;44.68;100556.94;5176063;28;20030;-79
2021/04/21 12:03:36;;;;;;;6.93;3.40;;;;;;;18.05;45.24;100568.34;5177633;28;20030;-79
2021/04/21 12:06:09;;;;;;;11.23;4.25;;;;;;;17.96;45.24;100561.84;5173847;28;20061;-79
2021/04/21 12:08:44;;;;;;;9.25;3.55;;;;;;;17.92;46.05;100554.22;5178692;28;20018;-79
2021/04/21 12:11:22;;;;;;;10.75;3.83;;;;;;;18.18;45.89;100548.88;5180872;28;20075;-79
2021/04/21 12:13:52;;;;;;;7.72;3.88;;;;;;;18.35;44.64;100547.81;5172832;28;20511;-80